Alma, Kansas
Current Conditions -  °F | °C
As of 2:14 AM on Sunday 23 Nov 2014 (Local Time) from KMHK Reporting Station
Haze Haze  
Wind Chill: 13°   Ceiling: 900
Heat Index: 13°   Visibility: 6mi
Dew Point: 12°   Wind: 7mph
Humidity: 96%   Direction: 190°S
Pressure: 29.55"   Gusts: NA
Location:  39.02°N, 96.29°W
Report Text: KMHK 230814Z AUTO 19006KT 6SM BR BKN009 OVC012 13/12 A2955 RMK AO2 T01280122 TSNO
Loading
Personal Weather Stations






























Interactive Weather Map New forecast layout! Learn more

10-Day Weather Forecast

Advertisements
Track Severe Weather on mobile